Time;durP1;ratioP1;P1;durP2;ratioP2;P2;SDS_P1;SDS_P2;PMS_P1;PMS_P2;Temp;Humidity;BMP_temperature;BMP_pressure;BME280_temperature;BME280_humidity;BME280_pressure;Samples;Min_cycle;Max_cycle;Signal;HPM_P1;HPM_P2
2022/06/01 00:00:32;;;;;;;17.40;15.60;;;;;;;10.03;84.25;101293.72;5011069;28;20030;-81
2022/06/01 00:02:58;;;;;;;21.98;16.23;;;;;;;10.00;84.62;101289.44;5024570;28;20042;-81
2022/06/01 00:05:24;;;;;;;18.75;16.80;;;;;;;9.97;84.63;101289.66;5020934;28;20083;-83
2022/06/01 00:07:50;;;;;;;17.90;16.30;;;;;;;9.92;84.00;101283.81;5032567;28;20034;-81
2022/06/01 00:10:16;;;;;;;19.25;16.98;;;;;;;9.92;83.68;101294.41;5024418;28;20454;-81
2022/06/01 00:12:42;;;;;;;18.65;16.55;;;;;;;9.89;84.62;101295.50;5026282;28;20034;-82
2022/06/01 00:15:09;;;;;;;18.58;16.88;;;;;;;9.86;84.95;101290.38;5024483;28;20053;-81
2022/06/01 00:17:35;;;;;;;19.60;17.70;;;;;;;9.88;84.86;101291.13;5024433;28;20050;-81
2022/06/01 00:20:00;;;;;;;20.38;18.38;;;;;;;9.83;85.19;101298.53;5034153;28;20040;-81
2022/06/01 00:22:26;;;;;;;19.35;17.55;;;;;;;9.80;84.74;101299.56;5017503;28;20030;-81
2022/06/01 00:24:51;;;;;;;20.02;17.92;;;;;;;9.76;85.08;101295.44;5027963;28;20037;-83
2022/06/01 00:27:17;;;;;;;20.45;18.52;;;;;;;9.77;85.06;101291.81;5026527;28;20067;-81
2022/06/01 00:29:43;;;;;;;20.50;18.60;;;;;;;9.75;85.29;101293.72;5011581;28;20026;-83
2022/06/01 00:32:13;;;;;;;20.98;19.05;;;;;;;9.75;85.68;101296.38;5038194;28;20030;-81
2022/06/01 00:34:39;;;;;;;20.83;18.85;;;;;;;9.75;85.47;101295.53;5024677;28;20112;-82
2022/06/01 00:37:04;;;;;;;20.58;18.58;;;;;;;9.74;84.83;101294.69;5032628;28;20030;-81
2022/06/01 00:39:31;;;;;;;21.73;19.67;;;;;;;9.74;85.72;101307.09;5025927;28;20403;-83
2022/06/01 00:42:15;;;;;;;21.50;19.40;;;;;;;9.76;85.15;101299.91;5027600;28;20017;-82
2022/06/01 00:44:40;;;;;;;21.88;19.77;;;;;;;9.71;85.52;101291.38;5027126;27;20022;-83
2022/06/01 00:47:06;;;;;;;21.85;19.75;;;;;;;9.72;86.07;101290.44;5026539;28;20037;-82
2022/06/01 00:49:35;;;;;;;23.42;21.02;;;;;;;9.69;86.04;101288.84;5026322;28;20022;-83
2022/06/01 00:52:01;;;;;;;21.83;19.73;;;;;;;9.70;85.90;101287.88;5029411;28;20021;-83
2022/06/01 00:54:27;;;;;;;22.30;20.13;;;;;;;9.68;85.59;101299.56;5029044;28;20102;-82
2022/06/01 00:56:57;;;;;;;22.35;20.17;;;;;;;9.63;85.37;101292.75;5017065;28;20105;-82
2022/06/01 00:59:26;;;;;;;21.20;19.00;;;;;;;9.60;84.57;101295.59;5032437;28;20037;-82
2022/06/01 01:01:55;;;;;;;22.15;20.13;;;;;;;9.61;84.49;101294.66;5025853;28;20052;-83
2022/06/01 01:04:22;;;;;;;20.13;18.23;;;;;;;9.59;84.60;101285.06;5026453;28;20030;-83
2022/06/01 01:06:48;;;;;;;21.45;19.38;;;;;;;9.59;85.11;101287.72;5025542;28;20053;-81
2022/06/01 01:09:14;;;;;;;22.88;20.60;;;;;;;9.56;85.22;101294.09;5015607;28;20045;-83
2022/06/01 01:12:05;;;;;;;21.55;19.38;;;;;;;9.59;84.62;101303.63;5022876;28;20025;-81
2022/06/01 01:14:34;;;;;;;22.05;19.75;;;;;;;9.55;85.24;101292.38;5011611;28;20033;-82
2022/06/01 01:17:01;;;;;;;22.13;20.02;;;;;;;9.52;84.89;101294.38;5003762;28;20052;-82
2022/06/01 01:19:36;;;;;;;22.92;20.75;;;;;;;9.53;85.34;101296.09;5025832;28;20034;-83
2022/06/01 01:22:22;;;;;;;23.13;20.83;;;;;;;9.55;86.08;101291.53;5023679;28;20054;-83
2022/06/01 01:25:15;;;;;;;24.15;21.85;;;;;;;9.57;86.65;101293.13;5030625;28;20153;-83
2022/06/01 01:27:42;;;;;;;23.35;21.15;;;;;;;9.52;86.20;101281.97;5067730;28;20051;-81
2022/06/01 01:30:52;;;;;;;23.65;21.35;;;;;;;9.58;85.42;101286.03;5008156;28;20058;-83
2022/06/01 01:33:24;;;;;;;23.55;21.27;;;;;;;9.51;85.91;101277.63;5000115;28;20117;-82
2022/06/01 01:35:53;;;;;;;22.70;20.50;;;;;;;9.50;86.24;101280.38;5003410;28;20041;-82
2022/06/01 01:38:34;;;;;;;23.60;21.35;;;;;;;9.49;85.59;101282.16;5021028;28;20034;-83
2022/06/01 01:41:07;;;;;;;22.50;20.40;;;;;;;9.49;85.87;101284.81;5021721;28;20059;-82
2022/06/01 01:43:36;;;;;;;23.60;21.33;;;;;;;9.44;86.25;101282.50;5022936;28;20060;-82
2022/06/01 01:46:01;;;;;;;25.77;23.13;;;;;;;9.42;85.81;101286.19;5035466;28;20022;-83
2022/06/01 01:48:27;;;;;;;25.77;23.20;;;;;;;9.41;86.02;101292.44;5025250;28;20036;-81
2022/06/01 01:50:54;;;;;;;26.27;23.83;;;;;;;9.39;86.40;101291.69;5023063;28;20120;-82
2022/06/01 01:53:20;;;;;;;26.15;23.38;;;;;;;9.37;86.09;101291.78;5023820;28;20105;-82
2022/06/01 01:56:00;;;;;;;26.05;23.55;;;;;;;9.37;86.29;101291.78;5024137;28;20086;-82
2022/06/01 01:58:44;;;;;;;25.33;22.73;;;;;;;9.35;86.39;101287.53;5015030;28;20060;-82
2022/06/01 02:01:17;;;;;;;25.33;22.92;;;;;;;9.32;86.74;101301.81;5019412;28;20049;-83
2022/06/01 02:04:00;;;;;;;27.10;24.42;;;;;;;9.30;86.62;101295.78;5018638;28;20038;-82
2022/06/01 02:06:33;;;;;;;26.98;24.30;;;;;;;9.24;86.86;101297.03;5002515;28;20041;-81
2022/06/01 02:09:05;;;;;;;27.30;24.60;;;;;;;9.24;86.49;101291.72;5015873;28;20030;-82
2022/06/01 02:14:50;;;;;;;27.63;24.85;;;;;;;9.20;85.84;101289.38;5018129;28;20064;-82
2022/06/01 02:17:22;;;;;;;27.15;24.63;;;;;;;9.17;86.50;101292.19;5019371;28;20052;-82
2022/06/01 02:19:54;;;;;;;27.55;24.92;;;;;;;9.17;86.69;101294.84;5010625;28;20474;-84
2022/06/01 02:22:20;;;;;;;26.77;24.27;;;;;;;9.14;86.28;101293.22;5031364;28;20025;-82
2022/06/01 02:24:46;;;;;;;27.58;24.77;;;;;;;9.09;86.90;101297.97;5029882;28;20037;-82
2022/06/01 02:27:14;;;;;;;27.85;25.10;;;;;;;9.08;86.76;101294.50;5029204;28;20022;-82
2022/06/01 02:29:47;;;;;;;26.80;24.17;;;;;;;9.05;86.77;101297.31;5026268;28;20018;-82
2022/06/01 02:32:14;;;;;;;28.95;26.05;;;;;;;9.06;86.50;101298.19;5026587;28;20026;-82
2022/06/01 02:34:42;;;;;;;28.58;25.77;;;;;;;9.02;86.71;101300.16;5037188;28;20032;-83
2022/06/01 02:37:10;;;;;;;27.67;24.98;;;;;;;9.01;86.18;101298.47;5044916;28;20055;-84
2022/06/01 02:39:40;;;;;;;27.98;25.20;;;;;;;8.96;86.96;101300.56;5020931;28;20046;-83
2022/06/01 02:42:25;;;;;;;28.35;24.90;;;;;;;8.96;87.02;101295.28;5013693;28;20356;-84
2022/06/01 02:44:59;;;;;;;27.00;24.30;;;;;;;8.92;86.66;101293.75;5027220;28;20038;-83
2022/06/01 02:47:27;;;;;;;25.98;23.30;;;;;;;8.91;86.11;101299.13;5014394;28;20112;-82
2022/06/01 02:49:53;;;;;;;26.27;23.52;;;;;;;8.87;86.24;101293.19;5029137;28;20026;-82
2022/06/01 02:52:19;;;;;;;26.85;24.08;;;;;;;8.85;86.61;101287.97;5027572;28;20102;-83
2022/06/01 02:54:45;;;;;;;25.27;22.73;;;;;;;8.84;86.21;101288.06;5032217;28;20033;-83
2022/06/01 02:57:11;;;;;;;25.65;23.15;;;;;;;8.83;86.31;101295.16;5019778;28;20035;-84
2022/06/01 02:59:37;;;;;;;25.02;22.33;;;;;;;8.85;86.10;101297.72;5019206;28;20026;-84
2022/06/01 03:02:04;;;;;;;24.88;22.48;;;;;;;8.81;85.93;101294.44;5019723;28;20045;-82
2022/06/01 03:04:29;;;;;;;25.90;23.30;;;;;;;8.76;86.33;101287.69;5034516;28;20031;-82
2022/06/01 03:06:55;;;;;;;25.38;22.98;;;;;;;8.77;86.15;101292.06;5009160;28;20425;-82
2022/06/01 03:09:21;;;;;;;24.65;22.20;;;;;;;8.72;85.96;101294.97;5022211;28;20485;-83
2022/06/01 03:11:46;;;;;;;25.30;22.60;;;;;;;8.69;86.08;101290.75;5022505;28;20084;-83
2022/06/01 03:14:12;;;;;;;23.67;21.17;;;;;;;8.70;86.07;101295.06;5009826;28;20057;-83
2022/06/01 03:16:37;;;;;;;26.05;21.33;;;;;;;8.65;85.50;101296.31;5017839;28;20030;-83
2022/06/01 03:19:03;;;;;;;24.83;22.35;;;;;;;8.61;85.71;101295.66;5016017;28;20041;-83
2022/06/01 03:21:29;;;;;;;24.02;21.20;;;;;;;8.59;85.57;101297.53;5021959;27;20245;-83
2022/06/01 03:23:55;;;;;;;24.55;22.13;;;;;;;8.56;86.52;101297.72;5012178;28;20026;-82
2022/06/01 03:26:21;;;;;;;25.05;22.33;;;;;;;8.54;86.27;101296.94;5020423;28;20038;-83
2022/06/01 03:28:46;;;;;;;25.05;22.40;;;;;;;8.50;86.03;101296.28;5020747;28;20022;-83
2022/06/01 03:31:12;;;;;;;23.70;21.20;;;;;;;8.49;86.66;101291.97;5014366;28;20035;-83
2022/06/01 03:33:37;;;;;;;24.48;21.95;;;;;;;8.46;86.44;101288.63;5018022;28;20337;-82
2022/06/01 03:36:06;;;;;;;24.23;21.90;;;;;;;8.44;86.98;101296.69;5021782;28;20052;-83
2022/06/01 03:38:32;;;;;;;22.83;20.42;;;;;;;8.43;86.78;101294.13;5014581;28;20025;-82
2022/06/01 03:40:58;;;;;;;24.92;21.35;;;;;;;8.44;86.71;101301.09;5022584;28;20030;-82
2022/06/01 03:43:24;;;;;;;23.73;20.27;;;;;;;8.41;86.65;101294.19;5022456;28;20030;-81
2022/06/01 03:45:55;;;;;;;21.92;19.65;;;;;;;8.39;86.15;101296.03;5025409;28;20030;-83
2022/06/01 03:48:29;;;;;;;23.02;20.02;;;;;;;8.36;86.67;101290.97;5031909;28;20117;-82
2022/06/01 03:50:57;;;;;;;22.65;19.50;;;;;;;8.34;86.83;101299.00;5022504;28;20034;-82
2022/06/01 03:53:25;;;;;;;21.92;19.55;;;;;;;8.35;87.31;101302.50;5022363;28;20026;-83
2022/06/01 03:55:52;;;;;;;22.02;19.58;;;;;;;8.32;87.27;101305.31;5023167;28;20026;-83
2022/06/01 03:58:21;;;;;;;22.27;19.98;;;;;;;8.29;87.60;101303.72;5018924;28;20026;-83
2022/06/01 04:00:48;;;;;;;23.45;19.85;;;;;;;8.32;87.14;101308.81;5022643;28;20030;-83
2022/06/01 04:03:15;;;;;;;22.48;19.58;;;;;;;8.29;87.35;101300.19;5032757;28;20018;-82
2022/06/01 04:05:40;;;;;;;22.48;18.98;;;;;;;8.31;87.06;101311.53;5028412;28;20078;-83
2022/06/01 04:08:06;;;;;;;21.30;19.10;;;;;;;8.32;87.52;101303.50;5028354;28;20462;-83
2022/06/01 04:10:35;;;;;;;21.83;19.10;;;;;;;8.32;87.68;101308.81;5023171;28;20105;-83
2022/06/01 04:13:01;;;;;;;21.17;18.75;;;;;;;8.32;87.43;101303.50;5025308;28;20029;-84
2022/06/01 04:15:27;;;;;;;21.77;19.48;;;;;;;8.33;88.14;101302.56;5026183;28;20034;-83
2022/06/01 04:17:52;;;;;;;23.08;18.98;;;;;;;8.29;88.01;101303.72;5024320;28;20030;-83
2022/06/01 04:20:17;;;;;;;21.83;18.13;;;;;;;8.33;88.05;101307.88;5025970;28;20022;-83
2022/06/01 04:22:44;;;;;;;20.15;18.02;;;;;;;8.34;88.04;101306.06;5012305;28;20059;-83
2022/06/01 04:25:13;;;;;;;21.60;18.45;;;;;;;8.33;88.71;101313.16;5037475;28;20030;-80
2022/06/01 04:27:39;;;;;;;22.55;18.38;;;;;;;8.34;88.78;101311.34;5023560;28;20030;-81
2022/06/01 04:30:10;;;;;;;22.83;19.65;;;;;;;8.37;89.25;101307.69;5021679;28;20014;-82
2022/06/01 04:32:36;;;;;;;21.85;19.55;;;;;;;8.41;88.73;101309.19;5020183;28;20131;-82
2022/06/01 04:35:02;;;;;;;24.88;20.13;;;;;;;8.42;89.58;101311.75;5020373;28;20054;-81
2022/06/01 04:37:28;;;;;;;22.45;20.05;;;;;;;8.44;89.78;101309.03;5023492;28;20026;-81
2022/06/01 04:39:53;;;;;;;25.60;20.08;;;;;;;8.48;89.34;101313.22;5021894;28;20071;-81
2022/06/01 04:42:19;;;;;;;23.45;19.77;;;;;;;8.53;89.72;101313.81;5020630;28;20029;-83
2022/06/01 04:44:45;;;;;;;22.08;18.10;;;;;;;8.57;89.48;101319.75;5021988;28;20042;-82
2022/06/01 04:47:11;;;;;;;24.83;18.52;;;;;;;8.61;89.12;101318.63;5020684;28;20030;-81
2022/06/01 04:49:36;;;;;;;22.77;19.30;;;;;;;8.62;89.36;101317.69;5019832;28;20059;-82
2022/06/01 04:52:03;;;;;;;19.17;16.77;;;;;;;8.65;88.84;101322.78;5019285;28;20348;-82
2022/06/01 04:54:28;;;;;;;21.65;18.13;;;;;;;8.65;89.06;101321.00;5019572;28;20022;-81
2022/06/01 04:56:57;;;;;;;20.77;18.55;;;;;;;8.75;89.78;101323.09;5017565;28;20026;-82
2022/06/01 04:59:22;;;;;;;23.25;18.33;;;;;;;8.84;90.12;101323.38;5017540;28;20022;-81
2022/06/01 05:01:47;;;;;;;19.30;17.30;;;;;;;8.95;89.61;101329.81;5007316;28;20031;-83
2022/06/01 05:04:14;;;;;;;20.40;16.83;;;;;;;9.06;89.75;101332.66;5017046;28;20048;-82
2022/06/01 05:06:40;;;;;;;19.77;17.65;;;;;;;9.16;89.44;101322.28;5017524;28;20034;-82
2022/06/01 05:09:08;;;;;;;23.48;16.95;;;;;;;9.25;88.59;101329.69;5005372;28;20118;-82
2022/06/01 05:11:34;;;;;;;19.35;16.15;;;;;;;9.30;88.68;101319.63;5015483;28;20029;-81
2022/06/01 05:14:00;;;;;;;16.90;15.15;;;;;;;9.35;88.90;101316.69;5006789;28;20053;-82
2022/06/01 05:16:26;;;;;;;19.30;14.32;;;;;;;9.37;88.19;101312.13;5013059;28;20442;-81
2022/06/01 05:18:52;;;;;;;20.10;15.15;;;;;;;9.39;88.31;101316.41;5014383;28;20030;-82
2022/06/01 05:21:18;;;;;;;16.25;14.32;;;;;;;9.42;88.79;101321.47;5013671;28;20044;-82
2022/06/01 05:23:44;;;;;;;18.27;14.85;;;;;;;9.52;89.05;101324.41;5013899;28;20030;-82
2022/06/01 05:26:13;;;;;;;16.50;14.38;;;;;;;9.63;88.82;101321.06;5013386;28;20428;-82
2022/06/01 05:28:38;;;;;;;19.65;15.32;;;;;;;9.76;89.11;101321.97;5013185;28;20059;-83
2022/06/01 05:31:07;;;;;;;17.83;14.38;;;;;;;9.91;89.14;101321.88;5003668;28;20409;-83
2022/06/01 05:33:33;;;;;;;18.88;14.40;;;;;;;10.11;88.39;101320.59;4997473;28;20458;-83
2022/06/01 05:35:59;;;;;;;15.38;13.57;;;;;;;10.28;87.90;101320.28;5013316;28;20111;-82
2022/06/01 05:38:24;;;;;;;15.75;13.43;;;;;;;10.48;87.02;101321.63;5013800;28;20030;-83
2022/06/01 05:40:50;;;;;;;16.75;13.73;;;;;;;10.72;86.61;101316.44;5014016;28;20536;-81
2022/06/01 05:43:17;;;;;;;14.85;12.68;;;;;;;10.93;85.87;101316.72;5023530;28;20034;-83
2022/06/01 05:45:43;;;;;;;18.08;12.75;;;;;;;11.14;85.16;101304.66;5027301;28;20058;-83
2022/06/01 05:48:11;;;;;;;14.38;11.35;;;;;;;11.29;84.43;101316.84;5033700;28;20417;-82
2022/06/01 05:50:37;;;;;;;16.48;11.27;;;;;;;11.52;83.81;101317.84;5032882;28;20098;-81
2022/06/01 05:53:02;;;;;;;17.63;11.52;;;;;;;11.66;83.53;101317.69;5030852;28;20414;-81
2022/06/01 05:55:28;;;;;;;14.00;11.15;;;;;;;11.85;82.46;101322.47;5033427;28;20021;-82
2022/06/01 05:57:53;;;;;;;16.88;11.60;;;;;;;12.07;82.24;101326.25;5028972;28;20022;-83
2022/06/01 06:00:19;;;;;;;15.98;10.98;;;;;;;12.26;82.12;101327.50;5035338;28;20082;-81
2022/06/01 06:02:45;;;;;;;19.40;11.57;;;;;;;12.55;81.66;101330.59;5035293;28;20093;-81
2022/06/01 06:07:56;;;;;;;15.20;10.70;;;;;;;12.91;79.73;101326.06;5021065;28;20053;-80
2022/06/01 06:10:22;;;;;;;14.80;10.77;;;;;;;13.08;78.77;101330.03;5033399;28;20037;-80
2022/06/01 06:12:48;;;;;;;15.00;11.38;;;;;;;13.19;78.29;101330.03;5035505;28;20068;-80
2022/06/01 06:15:14;;;;;;;15.00;10.10;;;;;;;13.24;77.61;101333.19;5032878;28;20033;-79
2022/06/01 06:17:41;;;;;;;12.90;9.85;;;;;;;13.41;78.10;101321.19;5029863;28;20048;-79
2022/06/01 06:20:07;;;;;;;15.48;10.60;;;;;;;13.43;77.13;101326.41;5034955;28;20022;-79
2022/06/01 06:22:32;;;;;;;15.10;9.25;;;;;;;13.61;77.77;101332.91;5024309;28;20042;-79
2022/06/01 06:24:58;;;;;;;14.25;9.80;;;;;;;13.73;76.34;101332.88;5048244;28;20022;-79
2022/06/01 06:27:26;;;;;;;12.05;9.48;;;;;;;13.97;75.85;101341.53;5022395;28;20038;-79
2022/06/01 06:29:53;;;;;;;14.20;9.43;;;;;;;14.06;75.80;101343.44;5032241;28;20036;-79
2022/06/01 06:32:20;;;;;;;14.63;9.50;;;;;;;14.31;74.74;101344.03;5033219;28;20075;-77
2022/06/01 06:34:45;;;;;;;13.32;8.95;;;;;;;14.47;74.65;101348.06;5029968;28;20026;-78
2022/06/01 06:37:11;;;;;;;15.95;9.35;;;;;;;14.69;73.93;101347.13;5033217;28;20103;-81
2022/06/01 06:39:37;;;;;;;10.88;9.40;;;;;;;14.87;73.35;101361.59;5027265;28;20045;-80
2022/06/01 06:42:05;;;;;;;13.25;8.80;;;;;;;15.09;72.97;101360.56;5026688;28;20049;-80
2022/06/01 06:44:30;;;;;;;11.02;8.32;;;;;;;15.31;71.67;101364.03;5026462;28;20010;-80
2022/06/01 06:46:56;;;;;;;13.02;8.73;;;;;;;15.59;72.37;101369.56;5025198;28;20051;-81
2022/06/01 06:49:21;;;;;;;11.52;8.15;;;;;;;15.82;69.26;101372.91;5029253;28;20086;-82
2022/06/01 06:51:49;;;;;;;15.00;8.13;;;;;;;16.00;69.41;101370.38;5033568;28;20090;-81
2022/06/01 06:54:15;;;;;;;10.50;8.03;;;;;;;16.14;68.22;101372.66;5031829;28;20030;-81
2022/06/01 06:56:40;;;;;;;11.80;8.13;;;;;;;16.32;67.64;101375.47;5028953;28;20019;-81
2022/06/01 06:59:06;;;;;;;11.48;7.82;;;;;;;16.48;66.46;101374.03;5034506;28;20087;-81
2022/06/01 07:01:34;;;;;;;9.18;7.15;;;;;;;16.63;66.68;101376.13;5016355;28;20054;-82
2022/06/01 07:04:02;;;;;;;10.65;7.28;;;;;;;16.76;66.16;101386.53;5021269;28;20025;-81
2022/06/01 07:06:29;;;;;;;11.93;7.22;;;;;;;16.95;65.38;101377.63;5031992;28;20010;-81
2022/06/01 07:08:55;;;;;;;8.27;7.18;;;;;;;16.92;64.71;101385.97;5036860;28;20017;-81
2022/06/01 07:11:23;;;;;;;13.52;7.22;;;;;;;16.99;65.37;101384.41;5036581;28;20020;-81
2022/06/01 07:13:50;;;;;;;10.40;7.28;;;;;;;17.01;63.49;101386.94;5036793;28;20066;-81
2022/06/01 07:16:24;;;;;;;11.07;7.25;;;;;;;17.18;64.87;101388.00;5023136;28;20029;-81
2022/06/01 07:18:51;;;;;;;12.18;7.15;;;;;;;17.33;64.15;101385.66;5029796;28;20039;-80
2022/06/01 07:21:18;;;;;;;8.95;7.57;;;;;;;17.36;62.04;101382.69;5036061;28;20043;-81
2022/06/01 07:23:45;;;;;;;11.50;7.00;;;;;;;17.73;62.09;101382.59;5037798;28;20038;-80
2022/06/01 07:26:19;;;;;;;9.73;7.10;;;;;;;18.02;61.58;101384.28;5037503;28;20029;-80
2022/06/01 07:28:44;;;;;;;10.30;6.45;;;;;;;18.19;59.67;101385.28;5033292;28;20066;-81
2022/06/01 07:31:10;;;;;;;11.63;6.90;;;;;;;18.52;59.93;101380.19;5033813;28;20032;-80
2022/06/01 07:33:35;;;;;;;12.77;6.15;;;;;;;18.68;61.73;101382.13;5046538;27;20036;-79
2022/06/01 07:36:04;;;;;;;10.07;6.35;;;;;;;18.81;58.44;101390.63;5030619;28;20057;-80
2022/06/01 07:44:09;;;;;;;8.82;4.60;;;;;;;19.22;55.65;101387.38;5033638;28;20041;-78
2022/06/01 07:46:36;;;;;;;5.20;4.10;;;;;;;19.23;53.89;101380.97;5026690;28;20556;-81
2022/06/01 07:49:01;;;;;;;7.55;5.10;;;;;;;19.38;54.59;101381.19;5025513;28;20017;-81
2022/06/01 07:51:27;;;;;;;5.55;3.60;;;;;;;19.75;52.79;101386.25;5035583;28;20038;-82
2022/06/01 07:53:52;;;;;;;5.53;3.80;;;;;;;19.77;54.01;101378.84;5036124;28;20055;-82
2022/06/01 07:56:18;;;;;;;6.25;4.18;;;;;;;19.83;52.14;101384.56;5024511;28;20026;-79
2022/06/01 07:58:43;;;;;;;4.95;3.95;;;;;;;20.00;52.09;101383.59;5029712;28;20021;-80
2022/06/01 08:01:12;;;;;;;7.57;4.70;;;;;;;20.06;51.97;101391.00;5034434;28;20014;-80
2022/06/01 08:03:38;;;;;;;9.52;4.75;;;;;;;20.25;51.11;101380.91;5028423;28;20082;-79
2022/06/01 08:06:04;;;;;;;4.95;4.43;;;;;;;20.48;50.42;101383.78;5036544;28;20037;-80
2022/06/01 08:08:29;;;;;;;6.13;4.47;;;;;;;20.34;49.65;101388.84;5031679;28;20018;-80
2022/06/01 08:10:59;;;;;;;5.70;5.07;;;;;;;20.17;50.54;101389.00;5026930;28;20078;-80
2022/06/01 08:13:25;;;;;;;8.75;5.53;;;;;;;19.96;49.27;101387.63;5035520;28;20013;-80
2022/06/01 08:15:52;;;;;;;4.90;4.20;;;;;;;19.85;49.79;101383.41;5035946;28;20013;-81
2022/06/01 08:18:20;;;;;;;5.85;3.58;;;;;;;20.05;50.64;101396.56;5036657;28;20018;-81
2022/06/01 08:20:47;;;;;;;4.90;3.75;;;;;;;20.32;49.43;101390.03;5037086;28;20028;-81
2022/06/01 08:23:13;;;;;;;4.72;3.47;;;;;;;20.46;49.06;101393.91;5035323;28;20030;-80
2022/06/01 08:25:41;;;;;;;4.00;3.55;;;;;;;20.80;49.20;101384.78;5030261;28;20078;-81
2022/06/01 08:28:07;;;;;;;6.57;3.78;;;;;;;20.83;46.41;101385.28;5027278;28;20010;-81
2022/06/01 08:30:35;;;;;;;4.50;3.75;;;;;;;21.03;46.18;101376.78;5035321;28;20060;-81
2022/06/01 08:33:00;;;;;;;4.50;3.17;;;;;;;21.18;44.57;101375.06;5041599;27;20072;-81
2022/06/01 08:35:32;;;;;;;5.13;3.13;;;;;;;21.36;45.11;101372.09;5033167;27;20014;-81
2022/06/01 08:38:02;;;;;;;4.25;3.08;;;;;;;21.76;43.68;101370.22;5034024;27;20037;-80
2022/06/01 08:41:16;;;;;;;4.47;3.30;;;;;;;21.89;45.72;101371.53;5034705;28;20041;-81
2022/06/01 08:43:52;;;;;;;3.67;2.80;;;;;;;21.51;45.10;101368.69;5045841;28;20076;-80
2022/06/01 08:46:21;;;;;;;5.35;3.05;;;;;;;21.33;43.88;101374.31;5024695;28;20021;-81
2022/06/01 08:48:50;;;;;;;4.32;3.00;;;;;;;21.49;43.07;101371.56;5028584;28;20014;-81
2022/06/01 08:51:26;;;;;;;3.15;2.67;;;;;;;21.61;42.49;101369.31;5026406;28;20026;-80
2022/06/01 08:54:03;;;;;;;4.47;2.88;;;;;;;22.06;44.36;101364.13;5032128;28;20006;-81
2022/06/01 08:56:35;;;;;;;4.53;2.75;;;;;;;22.53;43.06;101365.78;5029557;28;20029;-81
2022/06/01 08:59:26;;;;;;;4.85;2.97;;;;;;;22.68;44.26;101368.50;5027990;28;20044;-81
2022/06/01 09:02:08;;;;;;;2.88;2.47;;;;;;;22.75;42.57;101365.91;5025009;28;20053;-81
2022/06/01 09:05:11;;;;;;;2.42;2.20;;;;;;;22.91;43.13;101379.25;5023377;28;20018;-82
2022/06/01 09:07:44;;;;;;;2.50;2.30;;;;;;;22.75;41.25;101380.31;5027311;27;20059;-80
2022/06/01 09:10:40;;;;;;;3.90;2.90;;;;;;;22.86;42.13;101384.41;5033701;28;20038;-80
2022/06/01 09:13:19;;;;;;;5.15;2.78;;;;;;;22.56;41.28;101372.69;5017894;28;20025;-80
2022/06/01 09:15:50;;;;;;;4.88;2.70;;;;;;;22.59;41.44;101378.59;5028312;28;20014;-80
2022/06/01 09:18:28;;;;;;;3.83;2.80;;;;;;;22.48;41.97;101376.31;5033324;27;20089;-81
2022/06/01 09:23:40;;;;;;;3.40;2.80;;;;;;;22.79;41.07;101369.94;5033149;28;20032;-80
2022/06/01 09:26:06;;;;;;;5.78;3.00;;;;;;;23.11;40.83;101362.50;5044810;27;20032;-80
2022/06/01 09:28:38;;;;;;;3.70;2.90;;;;;;;23.35;39.70;101373.03;5033661;28;20055;-80
2022/06/01 09:31:15;;;;;;;3.58;3.15;;;;;;;23.42;39.86;101373.94;5035980;27;20030;-81
2022/06/01 09:33:40;;;;;;;5.35;3.55;;;;;;;23.07;40.28;101389.97;5038341;27;20041;-81
2022/06/01 09:36:09;;;;;;;6.95;3.65;;;;;;;22.70;40.31;101388.97;5034353;28;20022;-81
2022/06/01 09:38:34;;;;;;;7.15;3.78;;;;;;;22.64;40.96;101389.69;5020460;28;20053;-81
2022/06/01 09:41:17;;;;;;;4.60;3.40;;;;;;;22.81;41.37;101387.66;5029935;28;20050;-81
2022/06/01 09:43:52;;;;;;;6.75;3.35;;;;;;;22.21;41.96;101405.59;5027797;28;20118;-81
2022/06/01 09:46:34;;;;;;;4.25;2.88;;;;;;;22.25;43.36;101398.81;5014998;28;20019;-80
2022/06/01 09:49:06;;;;;;;2.80;2.50;;;;;;;21.96;41.66;101391.41;5032176;28;20109;-80
2022/06/01 09:51:38;;;;;;;3.28;2.28;;;;;;;21.96;42.98;101394.94;5027659;28;20013;-80
2022/06/01 09:54:25;;;;;;;3.80;2.55;;;;;;;21.87;43.44;101400.59;5029657;27;20037;-81
2022/06/01 09:56:51;;;;;;;2.95;2.30;;;;;;;21.62;42.68;101412.38;5028685;28;20029;-81
2022/06/01 10:08:14;;;;;;;3.00;1.75;;;;;;;20.49;45.60;101442.13;5014838;28;20049;-80
2022/06/01 10:10:40;;;;;;;4.50;2.30;;;;;;;20.05;45.75;101448.66;5027786;28;20045;-80
2022/06/01 10:13:06;;;;;;;5.75;3.03;;;;;;;19.65;48.81;101442.13;5034460;28;20021;-82
2022/06/01 10:15:41;;;;;;;4.38;3.25;;;;;;;19.49;47.96;101467.13;5034368;28;20042;-84
2022/06/01 10:18:21;;;;;;;9.32;3.75;;;;;;;19.00;49.41;101465.00;5034808;28;20037;-83
2022/06/01 10:21:10;;;;;;;5.32;3.30;;;;;;;18.66;50.73;101471.09;5014240;28;20070;-80
2022/06/01 10:24:02;;;;;;;14.93;4.28;;;;;;;18.11;53.94;101458.63;5015167;28;20367;-81
2022/06/01 10:26:37;;;;;;;5.15;3.10;;;;;;;17.74;56.50;101458.69;5015423;28;20077;-80
2022/06/01 10:29:07;;;;;;;6.43;2.70;;;;;;;17.38;56.83;101454.03;5013160;28;20483;-78
2022/06/01 10:31:39;;;;;;;9.07;2.90;;;;;;;17.13;57.38;101455.53;5012319;28;20471;-79
2022/06/01 10:34:16;;;;;;;4.85;2.42;;;;;;;16.95;57.48;101454.59;5012260;28;20026;-80
2022/06/01 10:37:09;;;;;;;6.05;2.78;;;;;;;16.97;58.87;101449.91;5011748;28;20030;-80
2022/06/01 10:39:44;;;;;;;3.50;2.50;;;;;;;16.76;61.79;101461.66;5019751;28;20063;-82
2022/06/01 10:42:17;;;;;;;2.53;2.33;;;;;;;17.02;62.39;101450.38;5038283;28;20030;-83
2022/06/01 10:45:04;;;;;;;4.10;2.47;;;;;;;17.46;59.37;101442.56;5027277;28;20030;-81
2022/06/01 10:47:29;;;;;;;4.40;2.80;;;;;;;17.72;63.25;101444.59;5039690;27;20022;-83
2022/06/01 10:50:03;;;;;;;7.18;3.20;;;;;;;18.04;60.51;101451.34;5036464;28;20079;-82
2022/06/01 10:52:39;;;;;;;5.22;2.90;;;;;;;18.24;59.14;101460.97;5034634;28;20077;-82
2022/06/01 10:55:36;;;;;;;6.93;2.83;;;;;;;18.44;58.01;101460.81;5030806;28;20030;-82
2022/06/01 10:58:05;;;;;;;3.00;2.38;;;;;;;18.17;58.34;101464.41;5031474;28;20030;-82
2022/06/01 11:00:56;;;;;;;3.30;2.70;;;;;;;18.01;57.48;101457.03;5035788;28;20033;-82
2022/06/01 11:03:34;;;;;;;3.03;2.72;;;;;;;17.76;59.19;101454.00;5036889;27;20018;-81
2022/06/01 11:06:45;;;;;;;3.00;2.53;;;;;;;17.51;59.15;101456.41;5035646;28;20052;-82
2022/06/01 11:09:29;;;;;;;2.40;2.20;;;;;;;17.17;59.41;101450.75;5036801;28;20032;-82
2022/06/01 11:12:03;;;;;;;3.03;2.30;;;;;;;16.97;60.28;101449.91;5026606;28;20026;-82
2022/06/01 11:14:50;;;;;;;2.67;2.47;;;;;;;16.84;61.75;101442.16;5000035;28;20030;-81
2022/06/01 11:17:25;;;;;;;2.53;1.95;;;;;;;16.77;59.44;101441.91;5014566;28;20026;-82
2022/06/01 11:20:00;;;;;;;3.55;2.20;;;;;;;16.61;59.61;101442.47;5011664;28;20116;-81
2022/06/01 11:23:02;;;;;;;3.28;2.40;;;;;;;16.74;62.41;101446.72;4994169;28;20571;-82
2022/06/01 11:25:40;;;;;;;3.97;3.08;;;;;;;16.89;60.73;101445.28;5010965;28;20117;-80
2022/06/01 11:28:17;;;;;;;2.17;2.03;;;;;;;17.14;58.73;101443.81;5001179;28;20121;-82
2022/06/01 11:30:53;;;;;;;1.80;1.70;;;;;;;17.24;59.79;101456.38;5012519;28;20037;-81
2022/06/01 11:33:25;;;;;;;4.20;2.20;;;;;;;17.36;60.81;101458.72;5005471;28;20056;-82
2022/06/01 11:35:59;;;;;;;2.67;1.77;;;;;;;17.59;57.06;101469.09;5012989;28;20036;-81
2022/06/01 11:38:32;;;;;;;2.83;1.80;;;;;;;17.88;56.86;101462.75;5017354;28;20439;-81
2022/06/01 11:41:10;;;;;;;1.90;1.80;;;;;;;18.01;56.95;101468.59;4999258;28;20487;-81
2022/06/01 11:43:52;;;;;;;2.50;2.15;;;;;;;18.06;58.36;101473.53;5002293;28;20038;-81
2022/06/01 11:46:36;;;;;;;3.50;2.20;;;;;;;17.93;55.77;101480.09;5014966;28;20033;-80
2022/06/01 11:49:12;;;;;;;3.13;2.30;;;;;;;18.14;56.72;101472.78;5017024;28;20061;-81
2022/06/01 11:51:37;;;;;;;3.25;2.33;;;;;;;18.20;55.36;101469.47;5014496;28;20033;-81
2022/06/01 11:54:24;;;;;;;3.27;2.23;;;;;;;18.43;55.84;101457.25;5013231;28;20386;-81
2022/06/01 11:57:02;;;;;;;2.60;2.40;;;;;;;18.76;55.46;101456.72;5013031;28;20034;-81